sensor_id;sensor_type;location;lat;lon;timestamp;P1;durP1;ratioP1;P2;durP2;ratioP2
38994;SDS011;24769;18.712;99.000;2023-03-20T00:01:22;65.40;;;54.20;;
38994;SDS011;24769;18.712;99.000;2023-03-20T00:03:54;69.60;;;59.80;;
38994;SDS011;24769;18.712;99.000;2023-03-20T00:06:25;64.40;;;53.40;;
38994;SDS011;24769;18.712;99.000;2023-03-20T00:08:56;65.20;;;54.00;;
38994;SDS011;24769;18.712;99.000;2023-03-20T00:11:27;62.20;;;51.40;;
38994;SDS011;24769;18.712;99.000;2023-03-20T00:14:09;72.00;;;62.00;;
38994;SDS011;24769;18.712;99.000;2023-03-20T00:16:40;69.40;;;59.00;;
38994;SDS011;24769;18.712;99.000;2023-03-20T00:19:24;69.60;;;58.20;;
38994;SDS011;24769;18.712;99.000;2023-03-20T00:21:55;71.00;;;59.40;;
38994;SDS011;24769;18.712;99.000;2023-03-20T00:24:23;66.75;;;54.25;;
38994;SDS011;24769;18.712;99.000;2023-03-20T00:26:50;67.20;;;55.60;;
38994;SDS011;24769;18.712;99.000;2023-03-20T00:31:46;70.80;;;60.40;;
38994;SDS011;24769;18.712;99.000;2023-03-20T00:34:14;69.60;;;59.60;;
38994;SDS011;24769;18.712;99.000;2023-03-20T00:36:43;67.50;;;55.25;;
38994;SDS011;24769;18.712;99.000;2023-03-20T00:39:10;67.75;;;55.50;;
38994;SDS011;24769;18.712;99.000;2023-03-20T00:41:50;65.75;;;53.25;;
38994;SDS011;24769;18.712;99.000;2023-03-20T00:46:59;65.50;;;53.75;;
38994;SDS011;24769;18.712;99.000;2023-03-20T00:49:32;64.00;;;53.00;;
38994;SDS011;24769;18.712;99.000;2023-03-20T00:52:00;66.50;;;53.25;;
38994;SDS011;24769;18.712;99.000;2023-03-20T00:54:28;63.75;;;52.00;;
38994;SDS011;24769;18.712;99.000;2023-03-20T00:59:23;61.00;;;50.50;;
38994;SDS011;24769;18.712;99.000;2023-03-20T01:01:53;63.50;;;51.75;;
38994;SDS011;24769;18.712;99.000;2023-03-20T01:04:20;60.25;;;50.25;;
38994;SDS011;24769;18.712;99.000;2023-03-20T01:06:48;62.00;;;51.25;;
38994;SDS011;24769;18.712;99.000;2023-03-20T01:09:15;61.25;;;50.25;;
38994;SDS011;24769;18.712;99.000;2023-03-20T01:11:41;64.25;;;52.50;;
38994;SDS011;24769;18.712;99.000;2023-03-20T01:14:13;60.50;;;50.50;;
38994;SDS011;24769;18.712;99.000;2023-03-20T01:16:42;57.50;;;48.00;;
38994;SDS011;24769;18.712;99.000;2023-03-20T01:19:12;60.50;;;50.00;;
38994;SDS011;24769;18.712;99.000;2023-03-20T01:21:40;58.50;;;49.00;;
38994;SDS011;24769;18.712;99.000;2023-03-20T01:24:07;58.50;;;49.50;;
38994;SDS011;24769;18.712;99.000;2023-03-20T01:26:38;57.50;;;48.25;;
38994;SDS011;24769;18.712;99.000;2023-03-20T01:29:22;58.50;;;48.75;;
38994;SDS011;24769;18.712;99.000;2023-03-20T01:31:52;58.75;;;49.25;;
38994;SDS011;24769;18.712;99.000;2023-03-20T01:34:19;59.00;;;49.50;;
38994;SDS011;24769;18.712;99.000;2023-03-20T01:36:52;59.00;;;49.50;;
38994;SDS011;24769;18.712;99.000;2023-03-20T01:39:21;57.25;;;48.00;;
38994;SDS011;24769;18.712;99.000;2023-03-20T01:41:56;55.25;;;46.75;;
38994;SDS011;24769;18.712;99.000;2023-03-20T01:44:24;61.50;;;50.50;;
38994;SDS011;24769;18.712;99.000;2023-03-20T01:46:56;57.50;;;48.25;;
38994;SDS011;24769;18.712;99.000;2023-03-20T01:51:52;59.67;;;50.33;;
38994;SDS011;24769;18.712;99.000;2023-03-20T01:54:38;54.25;;;46.25;;
38994;SDS011;24769;18.712;99.000;2023-03-20T01:57:23;59.25;;;49.75;;
38994;SDS011;24769;18.712;99.000;2023-03-20T01:59:52;60.75;;;50.50;;
38994;SDS011;24769;18.712;99.000;2023-03-20T02:02:41;58.00;;;48.00;;
38994;SDS011;24769;18.712;99.000;2023-03-20T02:05:11;58.00;;;48.75;;
38994;SDS011;24769;18.712;99.000;2023-03-20T02:07:42;60.00;;;50.50;;
38994;SDS011;24769;18.712;99.000;2023-03-20T02:10:34;61.75;;;51.75;;
38994;SDS011;24769;18.712;99.000;2023-03-20T02:13:01;67.25;;;54.50;;
38994;SDS011;24769;18.712;99.000;2023-03-20T02:15:29;64.00;;;53.25;;
38994;SDS011;24769;18.712;99.000;2023-03-20T02:17:56;63.25;;;52.75;;
38994;SDS011;24769;18.712;99.000;2023-03-20T02:21:06;64.75;;;52.75;;
38994;SDS011;24769;18.712;99.000;2023-03-20T03:01:26;57.80;;;47.80;;
38994;SDS011;24769;18.712;99.000;2023-03-20T03:04:07;59.20;;;49.00;;
38994;SDS011;24769;18.712;99.000;2023-03-20T03:06:39;60.80;;;50.40;;
38994;SDS011;24769;18.712;99.000;2023-03-20T03:09:19;54.20;;;45.40;;
38994;SDS011;24769;18.712;99.000;2023-03-20T03:11:51;51.00;;;43.60;;
38994;SDS011;24769;18.712;99.000;2023-03-20T03:14:40;58.20;;;48.00;;
38994;SDS011;24769;18.712;99.000;2023-03-20T03:17:12;52.60;;;44.60;;
38994;SDS011;24769;18.712;99.000;2023-03-20T03:19:41;57.60;;;48.00;;
38994;SDS011;24769;18.712;99.000;2023-03-20T03:22:12;59.00;;;49.00;;
38994;SDS011;24769;18.712;99.000;2023-03-20T03:24:44;54.80;;;45.60;;
38994;SDS011;24769;18.712;99.000;2023-03-20T03:30:05;56.20;;;47.20;;
38994;SDS011;24769;18.712;99.000;2023-03-20T03:32:38;54.40;;;45.60;;
38994;SDS011;24769;18.712;99.000;2023-03-20T03:35:16;52.40;;;44.00;;
38994;SDS011;24769;18.712;99.000;2023-03-20T03:43:20;58.60;;;48.80;;
38994;SDS011;24769;18.712;99.000;2023-03-20T03:45:56;59.00;;;48.80;;
38994;SDS011;24769;18.712;99.000;2023-03-20T03:48:43;56.40;;;47.20;;
38994;SDS011;24769;18.712;99.000;2023-03-20T03:51:18;62.40;;;51.40;;
38994;SDS011;24769;18.712;99.000;2023-03-20T03:53:53;56.20;;;47.00;;
38994;SDS011;24769;18.712;99.000;2023-03-20T03:56:25;56.80;;;47.80;;
38994;SDS011;24769;18.712;99.000;2023-03-20T03:58:55;49.00;;;42.00;;
38994;SDS011;24769;18.712;99.000;2023-03-20T04:01:28;59.00;;;49.20;;
38994;SDS011;24769;18.712;99.000;2023-03-20T04:03:59;60.00;;;49.60;;
38994;SDS011;24769;18.712;99.000;2023-03-20T04:06:29;58.20;;;48.00;;
38994;SDS011;24769;18.712;99.000;2023-03-20T04:08:57;49.40;;;42.40;;
38994;SDS011;24769;18.712;99.000;2023-03-20T04:11:24;53.00;;;44.80;;
38994;SDS011;24769;18.712;99.000;2023-03-20T04:13:54;57.00;;;48.00;;
38994;SDS011;24769;18.712;99.000;2023-03-20T04:16:21;55.80;;;46.80;;
38994;SDS011;24769;18.712;99.000;2023-03-20T04:18:49;55.00;;;46.00;;
38994;SDS011;24769;18.712;99.000;2023-03-20T04:21:16;55.00;;;46.00;;
38994;SDS011;24769;18.712;99.000;2023-03-20T04:23:43;59.20;;;49.20;;
38994;SDS011;24769;18.712;99.000;2023-03-20T04:26:11;54.60;;;45.80;;
38994;SDS011;24769;18.712;99.000;2023-03-20T04:28:37;61.40;;;50.60;;
38994;SDS011;24769;18.712;99.000;2023-03-20T04:31:04;59.40;;;49.20;;
38994;SDS011;24769;18.712;99.000;2023-03-20T04:33:31;55.20;;;46.40;;
38994;SDS011;24769;18.712;99.000;2023-03-20T04:35:57;60.60;;;49.40;;
38994;SDS011;24769;18.712;99.000;2023-03-20T04:38:24;56.20;;;47.00;;
38994;SDS011;24769;18.712;99.000;2023-03-20T04:40:51;54.60;;;45.60;;
38994;SDS011;24769;18.712;99.000;2023-03-20T04:43:17;55.40;;;46.40;;
38994;SDS011;24769;18.712;99.000;2023-03-20T04:45:44;61.80;;;50.40;;
38994;SDS011;24769;18.712;99.000;2023-03-20T04:48:11;55.00;;;45.60;;
38994;SDS011;24769;18.712;99.000;2023-03-20T04:50:37;56.60;;;47.20;;
38994;SDS011;24769;18.712;99.000;2023-03-20T04:53:04;61.00;;;50.60;;
38994;SDS011;24769;18.712;99.000;2023-03-20T04:55:31;54.60;;;45.60;;
38994;SDS011;24769;18.712;99.000;2023-03-20T04:57:58;59.40;;;49.20;;
38994;SDS011;24769;18.712;99.000;2023-03-20T05:00:24;57.20;;;47.80;;
38994;SDS011;24769;18.712;99.000;2023-03-20T05:02:51;60.60;;;50.00;;
38994;SDS011;24769;18.712;99.000;2023-03-20T05:05:17;58.60;;;48.40;;
38994;SDS011;24769;18.712;99.000;2023-03-20T05:07:44;59.00;;;48.40;;
38994;SDS011;24769;18.712;99.000;2023-03-20T05:10:10;60.80;;;50.00;;
38994;SDS011;24769;18.712;99.000;2023-03-20T05:12:37;60.00;;;49.60;;
38994;SDS011;24769;18.712;99.000;2023-03-20T05:15:03;52.80;;;44.20;;
38994;SDS011;24769;18.712;99.000;2023-03-20T05:17:30;54.40;;;45.60;;
38994;SDS011;24769;18.712;99.000;2023-03-20T05:19:57;59.40;;;49.20;;
38994;SDS011;24769;18.712;99.000;2023-03-20T05:22:24;55.60;;;46.80;;
38994;SDS011;24769;18.712;99.000;2023-03-20T05:24:50;59.00;;;49.00;;
38994;SDS011;24769;18.712;99.000;2023-03-20T05:27:17;60.00;;;50.00;;
38994;SDS011;24769;18.712;99.000;2023-03-20T05:29:44;57.80;;;48.00;;
38994;SDS011;24769;18.712;99.000;2023-03-20T05:32:10;64.60;;;53.60;;
38994;SDS011;24769;18.712;99.000;2023-03-20T05:34:37;62.80;;;51.60;;
38994;SDS011;24769;18.712;99.000;2023-03-20T05:37:03;63.40;;;52.00;;
38994;SDS011;24769;18.712;99.000;2023-03-20T05:39:30;60.00;;;49.40;;
38994;SDS011;24769;18.712;99.000;2023-03-20T05:41:56;61.60;;;51.00;;
38994;SDS011;24769;18.712;99.000;2023-03-20T05:44:23;66.60;;;56.60;;
38994;SDS011;24769;18.712;99.000;2023-03-20T05:46:49;59.20;;;47.40;;
38994;SDS011;24769;18.712;99.000;2023-03-20T05:49:16;61.00;;;50.20;;
38994;SDS011;24769;18.712;99.000;2023-03-20T05:51:42;63.00;;;52.00;;
38994;SDS011;24769;18.712;99.000;2023-03-20T05:54:09;65.80;;;54.40;;
38994;SDS011;24769;18.712;99.000;2023-03-20T05:56:36;59.60;;;49.20;;
38994;SDS011;24769;18.712;99.000;2023-03-20T05:59:02;64.20;;;52.60;;
38994;SDS011;24769;18.712;99.000;2023-03-20T06:01:29;62.00;;;51.00;;
38994;SDS011;24769;18.712;99.000;2023-03-20T06:03:55;62.40;;;51.00;;
38994;SDS011;24769;18.712;99.000;2023-03-20T06:06:22;56.20;;;47.00;;
38994;SDS011;24769;18.712;99.000;2023-03-20T06:08:48;63.00;;;51.80;;
38994;SDS011;24769;18.712;99.000;2023-03-20T06:11:15;61.80;;;51.00;;
38994;SDS011;24769;18.712;99.000;2023-03-20T06:13:42;61.40;;;50.60;;
38994;SDS011;24769;18.712;99.000;2023-03-20T06:16:08;61.00;;;50.20;;
38994;SDS011;24769;18.712;99.000;2023-03-20T06:18:35;63.00;;;51.80;;
38994;SDS011;24769;18.712;99.000;2023-03-20T06:21:03;61.40;;;50.80;;
38994;SDS011;24769;18.712;99.000;2023-03-20T06:23:30;64.80;;;54.60;;
38994;SDS011;24769;18.712;99.000;2023-03-20T06:25:56;64.20;;;53.60;;
38994;SDS011;24769;18.712;99.000;2023-03-20T06:28:23;59.80;;;49.40;;
38994;SDS011;24769;18.712;99.000;2023-03-20T06:30:50;64.40;;;53.40;;
38994;SDS011;24769;18.712;99.000;2023-03-20T06:33:20;63.40;;;51.80;;
38994;SDS011;24769;18.712;99.000;2023-03-20T06:35:47;61.00;;;50.00;;
38994;SDS011;24769;18.712;99.000;2023-03-20T06:38:14;62.40;;;51.40;;
38994;SDS011;24769;18.712;99.000;2023-03-20T06:40:41;63.80;;;52.00;;
38994;SDS011;24769;18.712;99.000;2023-03-20T06:43:09;62.80;;;51.60;;
38994;SDS011;24769;18.712;99.000;2023-03-20T06:45:39;60.40;;;49.80;;
38994;SDS011;24769;18.712;99.000;2023-03-20T06:48:07;64.40;;;53.40;;
38994;SDS011;24769;18.712;99.000;2023-03-20T06:50:33;64.60;;;53.60;;
38994;SDS011;24769;18.712;99.000;2023-03-20T06:53:00;62.80;;;51.60;;
38994;SDS011;24769;18.712;99.000;2023-03-20T06:55:27;63.40;;;52.40;;
38994;SDS011;24769;18.712;99.000;2023-03-20T06:57:54;63.00;;;51.80;;
38994;SDS011;24769;18.712;99.000;2023-03-20T07:00:20;69.80;;;58.80;;
38994;SDS011;24769;18.712;99.000;2023-03-20T07:02:47;66.00;;;56.20;;
38994;SDS011;24769;18.712;99.000;2023-03-20T07:05:14;66.80;;;55.40;;
38994;SDS011;24769;18.712;99.000;2023-03-20T07:07:41;63.40;;;51.80;;
38994;SDS011;24769;18.712;99.000;2023-03-20T07:10:08;66.40;;;54.80;;
38994;SDS011;24769;18.712;99.000;2023-03-20T07:12:36;67.80;;;57.80;;
38994;SDS011;24769;18.712;99.000;2023-03-20T07:15:03;64.00;;;53.20;;
38994;SDS011;24769;18.712;99.000;2023-03-20T07:17:30;63.80;;;52.40;;
38994;SDS011;24769;18.712;99.000;2023-03-20T07:19:56;65.40;;;55.00;;
38994;SDS011;24769;18.712;99.000;2023-03-20T07:22:24;63.80;;;52.80;;
38994;SDS011;24769;18.712;99.000;2023-03-20T07:24:54;62.00;;;50.80;;
38994;SDS011;24769;18.712;99.000;2023-03-20T07:27:21;65.60;;;55.00;;
38994;SDS011;24769;18.712;99.000;2023-03-20T07:29:48;65.80;;;55.40;;
38994;SDS011;24769;18.712;99.000;2023-03-20T07:32:14;66.60;;;55.80;;
38994;SDS011;24769;18.712;99.000;2023-03-20T07:34:41;65.20;;;54.40;;
38994;SDS011;24769;18.712;99.000;2023-03-20T07:37:08;64.00;;;52.00;;
38994;SDS011;24769;18.712;99.000;2023-03-20T07:39:35;65.80;;;55.60;;
38994;SDS011;24769;18.712;99.000;2023-03-20T07:42:01;65.00;;;54.20;;
38994;SDS011;24769;18.712;99.000;2023-03-20T07:44:28;63.80;;;52.00;;
38994;SDS011;24769;18.712;99.000;2023-03-20T07:46:54;61.40;;;50.80;;
38994;SDS011;24769;18.712;99.000;2023-03-20T07:49:21;62.20;;;51.00;;
38994;SDS011;24769;18.712;99.000;2023-03-20T07:51:48;60.60;;;50.00;;
38994;SDS011;24769;18.712;99.000;2023-03-20T07:54:15;62.40;;;51.60;;
38994;SDS011;24769;18.712;99.000;2023-03-20T07:56:42;65.20;;;54.40;;
38994;SDS011;24769;18.712;99.000;2023-03-20T07:59:09;62.00;;;51.00;;
38994;SDS011;24769;18.712;99.000;2023-03-20T08:01:37;67.60;;;57.80;;
38994;SDS011;24769;18.712;99.000;2023-03-20T08:04:03;67.20;;;57.00;;
38994;SDS011;24769;18.712;99.000;2023-03-20T08:06:30;66.20;;;56.00;;
38994;SDS011;24769;18.712;99.000;2023-03-20T08:08:56;64.00;;;52.80;;
38994;SDS011;24769;18.712;99.000;2023-03-20T08:11:23;64.40;;;53.20;;
38994;SDS011;24769;18.712;99.000;2023-03-20T08:13:50;61.80;;;51.00;;
38994;SDS011;24769;18.712;99.000;2023-03-20T08:16:19;63.20;;;52.20;;
38994;SDS011;24769;18.712;99.000;2023-03-20T08:18:46;62.40;;;51.60;;
38994;SDS011;24769;18.712;99.000;2023-03-20T08:21:14;64.20;;;53.60;;
38994;SDS011;24769;18.712;99.000;2023-03-20T08:23:42;65.80;;;55.60;;
38994;SDS011;24769;18.712;99.000;2023-03-20T08:26:08;61.20;;;50.60;;
38994;SDS011;24769;18.712;99.000;2023-03-20T08:28:35;65.20;;;53.20;;
38994;SDS011;24769;18.712;99.000;2023-03-20T08:31:01;62.60;;;51.20;;
38994;SDS011;24769;18.712;99.000;2023-03-20T08:33:32;66.40;;;56.80;;
38994;SDS011;24769;18.712;99.000;2023-03-20T08:35:59;64.80;;;53.60;;
38994;SDS011;24769;18.712;99.000;2023-03-20T08:38:25;63.80;;;51.80;;
38994;SDS011;24769;18.712;99.000;2023-03-20T08:40:52;62.60;;;51.20;;
38994;SDS011;24769;18.712;99.000;2023-03-20T08:43:19;63.60;;;51.80;;
38994;SDS011;24769;18.712;99.000;2023-03-20T08:45:46;63.80;;;51.80;;
38994;SDS011;24769;18.712;99.000;2023-03-20T08:48:12;65.60;;;54.40;;
38994;SDS011;24769;18.712;99.000;2023-03-20T08:50:39;61.40;;;50.40;;
38994;SDS011;24769;18.712;99.000;2023-03-20T08:53:06;63.40;;;51.20;;
38994;SDS011;24769;18.712;99.000;2023-03-20T08:55:33;65.40;;;53.60;;
38994;SDS011;24769;18.712;99.000;2023-03-20T08:57:59;63.40;;;52.00;;
38994;SDS011;24769;18.712;99.000;2023-03-20T09:00:26;61.40;;;49.80;;
38994;SDS011;24769;18.712;99.000;2023-03-20T09:02:52;62.80;;;51.80;;
38994;SDS011;24769;18.712;99.000;2023-03-20T09:05:19;61.40;;;50.60;;
38994;SDS011;24769;18.712;99.000;2023-03-20T09:07:46;65.20;;;54.60;;
38994;SDS011;24769;18.712;99.000;2023-03-20T09:10:12;63.60;;;52.20;;
38994;SDS011;24769;18.712;99.000;2023-03-20T09:12:39;65.60;;;54.20;;
38994;SDS011;24769;18.712;99.000;2023-03-20T09:15:06;63.60;;;52.00;;
38994;SDS011;24769;18.712;99.000;2023-03-20T09:17:32;63.60;;;51.60;;
38994;SDS011;24769;18.712;99.000;2023-03-20T09:19:59;64.80;;;54.00;;
38994;SDS011;24769;18.712;99.000;2023-03-20T09:22:25;64.20;;;52.40;;
38994;SDS011;24769;18.712;99.000;2023-03-20T09:24:52;61.00;;;50.00;;
38994;SDS011;24769;18.712;99.000;2023-03-20T09:27:18;61.00;;;50.20;;
38994;SDS011;24769;18.712;99.000;2023-03-20T09:29:45;63.60;;;52.00;;
38994;SDS011;24769;18.712;99.000;2023-03-20T09:32:13;66.00;;;55.00;;
38994;SDS011;24769;18.712;99.000;2023-03-20T09:34:40;63.20;;;52.00;;
38994;SDS011;24769;18.712;99.000;2023-03-20T09:37:06;59.20;;;48.80;;
38994;SDS011;24769;18.712;99.000;2023-03-20T09:39:33;59.80;;;49.20;;
38994;SDS011;24769;18.712;99.000;2023-03-20T09:42:05;62.40;;;51.40;;
38994;SDS011;24769;18.712;99.000;2023-03-20T09:47:50;61.40;;;50.60;;
38994;SDS011;24769;18.712;99.000;2023-03-20T09:53:25;63.00;;;51.80;;
38994;SDS011;24769;18.712;99.000;2023-03-20T09:56:16;61.20;;;50.00;;
38994;SDS011;24769;18.712;99.000;2023-03-20T09:58:52;61.00;;;50.80;;
38994;SDS011;24769;18.712;99.000;2023-03-20T10:01:35;58.60;;;48.60;;
38994;SDS011;24769;18.712;99.000;2023-03-20T10:04:16;63.60;;;52.20;;
38994;SDS011;24769;18.712;99.000;2023-03-20T10:06:43;56.60;;;47.40;;
38994;SDS011;24769;18.712;99.000;2023-03-20T10:09:19;62.80;;;51.00;;
38994;SDS011;24769;18.712;99.000;2023-03-20T10:23:19;58.20;;;48.20;;
38994;SDS011;24769;18.712;99.000;2023-03-20T10:26:30;62.00;;;51.00;;
38994;SDS011;24769;18.712;99.000;2023-03-20T10:28:51;61.00;;;50.00;;
38994;SDS011;24769;18.712;99.000;2023-03-20T10:42:34;63.60;;;52.00;;
38994;SDS011;24769;18.712;99.000;2023-03-20T10:47:47;65.80;;;55.00;;
38994;SDS011;24769;18.712;99.000;2023-03-20T10:50:18;62.40;;;50.60;;
38994;SDS011;24769;18.712;99.000;2023-03-20T10:52:57;62.60;;;52.00;;
38994;SDS011;24769;18.712;99.000;2023-03-20T10:55:27;56.80;;;47.60;;
38994;SDS011;24769;18.712;99.000;2023-03-20T10:58:01;59.40;;;49.00;;
38994;SDS011;24769;18.712;99.000;2023-03-20T11:00:37;59.40;;;49.40;;
38994;SDS011;24769;18.712;99.000;2023-03-20T11:03:05;61.60;;;51.00;;
38994;SDS011;24769;18.712;99.000;2023-03-20T11:05:40;61.60;;;51.20;;
38994;SDS011;24769;18.712;99.000;2023-03-20T11:08:09;65.80;;;53.80;;
38994;SDS011;24769;18.712;99.000;2023-03-20T11:10:38;66.60;;;56.20;;
38994;SDS011;24769;18.712;99.000;2023-03-20T11:13:22;64.40;;;52.80;;
38994;SDS011;24769;18.712;99.000;2023-03-20T11:15:56;70.75;;;62.75;;
38994;SDS011;24769;18.712;99.000;2023-03-20T11:18:44;65.40;;;53.20;;
38994;SDS011;24769;18.712;99.000;2023-03-20T11:21:31;59.60;;;49.60;;
38994;SDS011;24769;18.712;99.000;2023-03-20T11:23:58;57.40;;;48.20;;
38994;SDS011;24769;18.712;99.000;2023-03-20T11:28:59;58.60;;;48.60;;
38994;SDS011;24769;18.712;99.000;2023-03-20T11:36:32;55.40;;;46.20;;
38994;SDS011;24769;18.712;99.000;2023-03-20T11:39:05;62.25;;;51.00;;
38994;SDS011;24769;18.712;99.000;2023-03-20T11:41:41;62.00;;;51.00;;
38994;SDS011;24769;18.712;99.000;2023-03-20T11:47:04;51.80;;;44.00;;
38994;SDS011;24769;18.712;99.000;2023-03-20T11:49:46;52.00;;;44.00;;
38994;SDS011;24769;18.712;99.000;2023-03-20T11:52:23;53.00;;;44.80;;
38994;SDS011;24769;18.712;99.000;2023-03-20T11:54:54;51.00;;;43.60;;
38994;SDS011;24769;18.712;99.000;2023-03-20T11:57:27;55.80;;;46.60;;
38994;SDS011;24769;18.712;99.000;2023-03-20T12:00:00;51.80;;;43.80;;
38994;SDS011;24769;18.712;99.000;2023-03-20T12:02:32;50.40;;;43.20;;
38994;SDS011;24769;18.712;99.000;2023-03-20T12:05:02;55.40;;;46.20;;
38994;SDS011;24769;18.712;99.000;2023-03-20T12:08:16;54.40;;;45.60;;
38994;SDS011;24769;18.712;99.000;2023-03-20T12:10:45;54.60;;;46.00;;
38994;SDS011;24769;18.712;99.000;2023-03-20T12:13:38;53.00;;;44.80;;
38994;SDS011;24769;18.712;99.000;2023-03-20T12:16:11;52.60;;;44.60;;
38994;SDS011;24769;18.712;99.000;2023-03-20T12:21:29;42.60;;;37.40;;
38994;SDS011;24769;18.712;99.000;2023-03-20T12:24:07;50.20;;;43.00;;
38994;SDS011;24769;18.712;99.000;2023-03-20T12:26:56;50.00;;;42.40;;
38994;SDS011;24769;18.712;99.000;2023-03-20T12:29:49;55.00;;;46.20;;
38994;SDS011;24769;18.712;99.000;2023-03-20T12:32:23;53.80;;;45.80;;
38994;SDS011;24769;18.712;99.000;2023-03-20T12:35:14;56.40;;;47.00;;
38994;SDS011;24769;18.712;99.000;2023-03-20T12:37:53;56.80;;;47.80;;
38994;SDS011;24769;18.712;99.000;2023-03-20T12:40:19;53.75;;;45.50;;
38994;SDS011;24769;18.712;99.000;2023-03-20T12:45:44;57.50;;;48.25;;
38994;SDS011;24769;18.712;99.000;2023-03-20T12:51:37;58.50;;;49.00;;
38994;SDS011;24769;18.712;99.000;2023-03-20T12:54:53;61.00;;;50.50;;
38994;SDS011;24769;18.712;99.000;2023-03-20T12:57:10;59.25;;;49.25;;
38994;SDS011;24769;18.712;99.000;2023-03-20T13:03:01;57.50;;;48.25;;
38994;SDS011;24769;18.712;99.000;2023-03-20T13:05:55;52.75;;;44.75;;
38994;SDS011;24769;18.712;99.000;2023-03-20T13:15:00;59.25;;;49.50;;
38994;SDS011;24769;18.712;99.000;2023-03-20T13:17:55;52.75;;;44.75;;
38994;SDS011;24769;18.712;99.000;2023-03-20T13:23:16;56.50;;;47.25;;
38994;SDS011;24769;18.712;99.000;2023-03-20T13:26:11;59.50;;;49.25;;
38994;SDS011;24769;18.712;99.000;2023-03-20T13:28:55;60.75;;;50.25;;
38994;SDS011;24769;18.712;99.000;2023-03-20T13:31:52;56.25;;;46.25;;
38994;SDS011;24769;18.712;99.000;2023-03-20T13:37:43;59.75;;;49.00;;
38994;SDS011;24769;18.712;99.000;2023-03-20T13:40:21;57.00;;;47.25;;
38994;SDS011;24769;18.712;99.000;2023-03-20T13:43:45;60.50;;;49.50;;
38994;SDS011;24769;18.712;99.000;2023-03-20T13:45:58;56.75;;;47.50;;
38994;SDS011;24769;18.712;99.000;2023-03-20T13:48:40;58.25;;;48.25;;
38994;SDS011;24769;18.712;99.000;2023-03-20T13:56:53;53.75;;;45.25;;
38994;SDS011;24769;18.712;99.000;2023-03-20T14:04:46;62.25;;;51.00;;
38994;SDS011;24769;18.712;99.000;2023-03-20T14:15:17;60.00;;;49.25;;
38994;SDS011;24769;18.712;99.000;2023-03-20T14:17:45;65.00;;;53.25;;
38994;SDS011;24769;18.712;99.000;2023-03-20T14:22:59;63.50;;;52.75;;
38994;SDS011;24769;18.712;99.000;2023-03-20T14:25:26;61.75;;;50.75;;
38994;SDS011;24769;18.712;99.000;2023-03-20T14:28:21;58.75;;;48.50;;
38994;SDS011;24769;18.712;99.000;2023-03-20T14:31:12;61.25;;;51.00;;
38994;SDS011;24769;18.712;99.000;2023-03-20T14:33:53;60.00;;;50.25;;
38994;SDS011;24769;18.712;99.000;2023-03-20T14:36:26;65.25;;;54.00;;
38994;SDS011;24769;18.712;99.000;2023-03-20T14:42:18;61.75;;;51.25;;
38994;SDS011;24769;18.712;99.000;2023-03-20T14:55:50;61.25;;;51.25;;
38994;SDS011;24769;18.712;99.000;2023-03-20T15:03:47;58.75;;;49.00;;
38994;SDS011;24769;18.712;99.000;2023-03-20T15:06:16;55.00;;;46.50;;
38994;SDS011;24769;18.712;99.000;2023-03-20T15:08:50;57.00;;;48.00;;
38994;SDS011;24769;18.712;99.000;2023-03-20T15:11:20;59.00;;;49.25;;
38994;SDS011;24769;18.712;99.000;2023-03-20T15:13:48;56.75;;;47.00;;
38994;SDS011;24769;18.712;99.000;2023-03-20T15:16:16;58.00;;;48.75;;
38994;SDS011;24769;18.712;99.000;2023-03-20T15:18:50;55.00;;;46.75;;
38994;SDS011;24769;18.712;99.000;2023-03-20T15:21:19;54.75;;;46.25;;
38994;SDS011;24769;18.712;99.000;2023-03-20T15:24:06;57.75;;;48.50;;
38994;SDS011;24769;18.712;99.000;2023-03-20T15:26:33;56.50;;;46.75;;
38994;SDS011;24769;18.712;99.000;2023-03-20T15:29:02;55.25;;;47.00;;
38994;SDS011;24769;18.712;99.000;2023-03-20T15:31:34;57.50;;;48.50;;
38994;SDS011;24769;18.712;99.000;2023-03-20T15:34:04;57.25;;;48.25;;
38994;SDS011;24769;18.712;99.000;2023-03-20T15:36:40;56.25;;;47.25;;
38994;SDS011;24769;18.712;99.000;2023-03-20T15:41:56;58.00;;;48.50;;
38994;SDS011;24769;18.712;99.000;2023-03-20T15:44:39;62.75;;;51.00;;
38994;SDS011;24769;18.712;99.000;2023-03-20T15:49:37;59.25;;;48.75;;
38994;SDS011;24769;18.712;99.000;2023-03-20T15:52:49;60.25;;;50.50;;
38994;SDS011;24769;18.712;99.000;2023-03-20T15:55:01;60.75;;;50.00;;
38994;SDS011;24769;18.712;99.000;2023-03-20T15:57:34;59.50;;;49.50;;
38994;SDS011;24769;18.712;99.000;2023-03-20T16:00:04;60.33;;;50.33;;
38994;SDS011;24769;18.712;99.000;2023-03-20T16:02:35;58.50;;;48.00;;
38994;SDS011;24769;18.712;99.000;2023-03-20T16:05:02;59.25;;;49.25;;
38994;SDS011;24769;18.712;99.000;2023-03-20T16:07:30;59.25;;;49.75;;
38994;SDS011;24769;18.712;99.000;2023-03-20T16:09:57;58.50;;;48.50;;
38994;SDS011;24769;18.712;99.000;2023-03-20T16:12:25;61.00;;;50.75;;
38994;SDS011;24769;18.712;99.000;2023-03-20T16:14:51;62.00;;;51.25;;
38994;SDS011;24769;18.712;99.000;2023-03-20T16:17:19;62.50;;;51.75;;
38994;SDS011;24769;18.712;99.000;2023-03-20T16:19:49;60.00;;;49.50;;
38994;SDS011;24769;18.712;99.000;2023-03-20T16:22:17;62.50;;;52.00;;
38994;SDS011;24769;18.712;99.000;2023-03-20T16:24:55;62.75;;;52.00;;
38994;SDS011;24769;18.712;99.000;2023-03-20T16:27:26;59.00;;;49.50;;
38994;SDS011;24769;18.712;99.000;2023-03-20T16:29:55;60.50;;;50.25;;
38994;SDS011;24769;18.712;99.000;2023-03-20T16:32:24;61.75;;;51.25;;
38994;SDS011;24769;18.712;99.000;2023-03-20T16:34:58;63.75;;;52.00;;
38994;SDS011;24769;18.712;99.000;2023-03-20T16:37:36;62.00;;;50.75;;
38994;SDS011;24769;18.712;99.000;2023-03-20T16:40:12;61.25;;;51.00;;
38994;SDS011;24769;18.712;99.000;2023-03-20T16:42:42;57.25;;;48.00;;
38994;SDS011;24769;18.712;99.000;2023-03-20T16:45:31;63.00;;;51.00;;
38994;SDS011;24769;18.712;99.000;2023-03-20T16:50:37;57.75;;;48.00;;
38994;SDS011;24769;18.712;99.000;2023-03-20T16:53:15;59.25;;;49.75;;
38994;SDS011;24769;18.712;99.000;2023-03-20T16:55:48;59.50;;;50.25;;
38994;SDS011;24769;18.712;99.000;2023-03-20T16:58:20;60.50;;;50.75;;
38994;SDS011;24769;18.712;99.000;2023-03-20T17:01:00;58.00;;;49.00;;
38994;SDS011;24769;18.712;99.000;2023-03-20T17:03:34;59.25;;;49.75;;
38994;SDS011;24769;18.712;99.000;2023-03-20T17:06:07;59.00;;;49.50;;
38994;SDS011;24769;18.712;99.000;2023-03-20T17:08:36;61.00;;;50.50;;
38994;SDS011;24769;18.712;99.000;2023-03-20T17:11:14;60.75;;;50.50;;
38994;SDS011;24769;18.712;99.000;2023-03-20T17:13:47;58.25;;;49.00;;
38994;SDS011;24769;18.712;99.000;2023-03-20T17:16:15;59.25;;;49.50;;
38994;SDS011;24769;18.712;99.000;2023-03-20T17:18:46;53.25;;;45.25;;
38994;SDS011;24769;18.712;99.000;2023-03-20T17:21:25;64.25;;;51.75;;
38994;SDS011;24769;18.712;99.000;2023-03-20T17:23:51;57.75;;;48.75;;
38994;SDS011;24769;18.712;99.000;2023-03-20T17:26:18;61.25;;;51.25;;